Weather at Bishop International Airport

Public forecast

Using degrees Fahrenheit for public forecast. Weather courtesy of forecast.io.

Current aviation weather report (METAR) for Bishop International Airport

2024/05/28 12:53 (retrieved 60 minutes ago)

KFNT 281253Z 27007KT 10SM BKN065 OVC100 14/12 A2988 RMK AO2 SLP117 T01440122

Aviation forecast (TAF) for Bishop International Airport

2024/05/28 12:22 (retrieved 2 hours ago)

TAF KFNT 281120Z 2812/2912 29010KT P6SM SCT028 OVC045 TEMPO 2812/2815 6SM -SHRA OVC040 FM281900 31011KT 5SM -SHRA BKN050 OVC100 PROB30 2819/2823 3SM TSRA BR OVC012CB FM290400 32005KT P6SM OVC050